Yasemin — 9HA2114 — position and weather

sailwx.info

Track history (hours):
 
Tides and Currents Weather Stations Pressure Air Temp Water Temp Dewpoint Dewpoint Depression Visibility Wind Speed Wind Dir Waves Ship Positions

Yasemin

Last reported at 2016-Jun-25 20:33 UTC. Time now 2016-Jun-28 11:42 UTC.
Position N 35°58' W 005°35'.

Length 105 m; draft 6.6 m.

Type: Cargo ship. MMSI: 249988000.

Date/timePositionNaut miles runAvg speedWind from/ knotsBaromVisibWave heightAir tempDewpointWater temp
2016-Jun-25 20:33N 35°58' W 005°35'8 7.9
2016-Jun-25 19:33N 36°00' W 005°25'8 7.9
2016-Jun-25 18:33N 36°02' W 005°16'11 8.4
2016-Jun-25 17:12N 36°04' W 005°02'15010.9
2016-Jun-25 03:31N 36°29' W 001°59'1111.6
2016-Jun-25 02:34N 36°30' W 001°45'1211.7
2016-Jun-25 01:33N 36°32' W 001°31'1111.0
2016-Jun-25 00:31N 36°33' W 001°16'1310.7
2016-Jun-24 23:19N 36°35' W 001°01'810.5
2016-Jun-24 22:32N 36°37' W 000°51'1110.8
2016-Jun-24 21:29N 36°39' W 000°37'1111.4
2016-Jun-24 20:33N 36°41' W 000°24'1111.4
2016-Jun-24 19:33N 36°43' W 000°10'1211.6
2016-Jun-24 18:33N 36°46' E 000°04'1212.3
2016-Jun-24 17:33N 36°49' E 000°19'1313.0
2016-Jun-24 16:33N 36°51' E 000°35'1313.1
2016-Jun-24 15:32N 36°54' E 000°51'1212.6
2016-Jun-24 14:33N 36°56' E 001°07'1212.1
2016-Jun-24 13:33N 36°59' E 001°22'1211.7
2016-Jun-24 12:33N 37°01' E 001°36'1211.5
2016-Jun-24 11:33N 37°03' E 001°50'1111.4
2016-Jun-24 10:33N 37°05' E 002°04'1211.7
2016-Jun-24 09:33N 37°07' E 002°18'1211.8
2016-Jun-24 08:33N 37°09' E 002°33'1111.4
2016-Jun-24 07:33N 37°11' E 002°47'3411.2
2016-Jun-24 04:33N 37°16' E 003°29'1111.3
2016-Jun-24 03:33N 37°18' E 003°43'1111.4
2016-Jun-24 02:33N 37°20' E 003°57'9511.9
2016-Jun-23 18:33N 37°28' E 005°56'32411.0
2016-Jun-22 13:14N 36°55' E 012°40'3511.6
2016-Jun-22 10:13N 36°45' E 013°22'811.4
2016-Jun-22 09:31N 36°43' E 013°31'1111.5
2016-Jun-22 08:33N 36°39' E 013°44'1211.6
2016-Jun-22 07:33N 36°35' E 013°58'1111.3
2016-Jun-22 06:33N 36°31' E 014°11'1111.2
2016-Jun-22 05:33N 36°27' E 014°24'1111.4
2016-Jun-22 04:33N 36°27' E 014°38'1511.3
2016-Jun-22 03:16N 36°26' E 014°56'911.8
2016-Jun-22 02:32N 36°25' E 015°07'39211.2
2016-Jun-20 15:32N 36°27' E 023°15'1512.1
2016-Jun-20 14:18N 36°39' E 023°26'912.0
2016-Jun-20 13:33N 36°46' E 023°33'2712.1
2016-Jun-20 11:16N 37°07' E 023°55'911.7
2016-Jun-20 10:31N 37°14' E 024°02'4912.0
2016-Jun-20 06:26N 37°55' E 024°35'2912.3
2016-Jun-20 04:04N 38°22' E 024°50'  
2016-Jun-17 02:21N 46°23' E 030°55'911.4
2016-Jun-17 01:33N 46°32' E 030°55'2410.6
2016-Jun-16 23:17N 46°36' E 031°30'810.6
2016-Jun-16 22:33N 46°36' E 031°41'1110.9
2016-Jun-16 21:34N 46°39' E 031°56'1010.0
2016-Jun-16 20:34N 46°49' E 031°55'8 8.4
2016-Jun-16 19:33N 46°56' E 032°01'0 0.0
2016-Jun-16 18:33N 46°56' E 032°01'0 0.0
2016-Jun-16 17:33N 46°56' E 032°01'0 0.0
2016-Jun-16 16:33N 46°56' E 032°01'0 0.0
2016-Jun-16 15:33N 46°56' E 032°01'0 0.0
2016-Jun-16 14:33N 46°56' E 032°01'0 0.0
2016-Jun-16 13:33N 46°56' E 032°01'0 0.0
2016-Jun-16 12:33N 46°56' E 032°01'0 0.0
2016-Jun-16 11:33N 46°56' E 032°01'0 0.0
2016-Jun-16 10:33N 46°56' E 032°01'0 0.0
2016-Jun-16 09:33N 46°56' E 032°01'0 0.0
2016-Jun-16 08:33N 46°56' E 032°01'0 0.0
2016-Jun-16 07:33N 46°56' E 032°01'0 0.0
2016-Jun-16 06:33N 46°56' E 032°01'0 0.0
2016-Jun-16 05:33N 46°56' E 032°01'0 0.0
2016-Jun-16 04:33N 46°56' E 032°01'0 0.0
2016-Jun-16 03:33N 46°56' E 032°01'0 0.0
2016-Jun-16 02:33N 46°56' E 032°01'0 0.0
2016-Jun-16 01:33N 46°56' E 032°01'0 0.0
2016-Jun-16 00:33N 46°56' E 032°01'0 0.0
2016-Jun-15 23:33N 46°56' E 032°01'0 0.0
2016-Jun-15 22:33N 46°56' E 032°01'0 0.0
2016-Jun-15 21:33N 46°56' E 032°01'  
Track history (hours):
 
Tides and Currents Weather Stations Pressure Air Temp Water Temp Dewpoint Dewpoint Depression Visibility Wind Speed Wind Dir Waves Ship Positions

Yasemin

Last reported at 2016-Jun-25 20:33 UTC. Time now 2016-Jun-28 11:42 UTC.
Position N 35°58' W 005°35'.

Length 105 m; draft 6.6 m.

Type: Cargo ship. MMSI: 249988000.

Date/timePositionNaut miles runAvg speedWind from/ knotsBaromVisibWave heightAir tempDewpointWater temp
2016-Jun-25 20:33N 35°58' W 005°35'8 7.9
2016-Jun-25 19:33N 36°00' W 005°25'8 7.9
2016-Jun-25 18:33N 36°02' W 005°16'11 8.4
2016-Jun-25 17:12N 36°04' W 005°02'15010.9
2016-Jun-25 03:31N 36°29' W 001°59'1111.6
2016-Jun-25 02:34N 36°30' W 001°45'1211.7
2016-Jun-25 01:33N 36°32' W 001°31'1111.0
2016-Jun-25 00:31N 36°33' W 001°16'1310.7
2016-Jun-24 23:19N 36°35' W 001°01'810.5
2016-Jun-24 22:32N 36°37' W 000°51'1110.8
2016-Jun-24 21:29N 36°39' W 000°37'1111.4
2016-Jun-24 20:33N 36°41' W 000°24'1111.4
2016-Jun-24 19:33N 36°43' W 000°10'1211.6
2016-Jun-24 18:33N 36°46' E 000°04'1212.3
2016-Jun-24 17:33N 36°49' E 000°19'1313.0
2016-Jun-24 16:33N 36°51' E 000°35'1313.1
2016-Jun-24 15:32N 36°54' E 000°51'1212.6
2016-Jun-24 14:33N 36°56' E 001°07'1212.1
2016-Jun-24 13:33N 36°59' E 001°22'1211.7
2016-Jun-24 12:33N 37°01' E 001°36'1211.5
2016-Jun-24 11:33N 37°03' E 001°50'1111.4
2016-Jun-24 10:33N 37°05' E 002°04'1211.7
2016-Jun-24 09:33N 37°07' E 002°18'1211.8
2016-Jun-24 08:33N 37°09' E 002°33'1111.4
2016-Jun-24 07:33N 37°11' E 002°47'3411.2
2016-Jun-24 04:33N 37°16' E 003°29'1111.3
2016-Jun-24 03:33N 37°18' E 003°43'1111.4
2016-Jun-24 02:33N 37°20' E 003°57'9511.9
2016-Jun-23 18:33N 37°28' E 005°56'32411.0
2016-Jun-22 13:14N 36°55' E 012°40'3511.6
2016-Jun-22 10:13N 36°45' E 013°22'811.4
2016-Jun-22 09:31N 36°43' E 013°31'1111.5
2016-Jun-22 08:33N 36°39' E 013°44'1211.6
2016-Jun-22 07:33N 36°35' E 013°58'1111.3
2016-Jun-22 06:33N 36°31' E 014°11'1111.2
2016-Jun-22 05:33N 36°27' E 014°24'1111.4
2016-Jun-22 04:33N 36°27' E 014°38'1511.3
2016-Jun-22 03:16N 36°26' E 014°56'911.8
2016-Jun-22 02:32N 36°25' E 015°07'39211.2
2016-Jun-20 15:32N 36°27' E 023°15'1512.1
2016-Jun-20 14:18N 36°39' E 023°26'912.0
2016-Jun-20 13:33N 36°46' E 023°33'2712.1
2016-Jun-20 11:16N 37°07' E 023°55'911.7
2016-Jun-20 10:31N 37°14' E 024°02'4912.0
2016-Jun-20 06:26N 37°55' E 024°35'2912.3
2016-Jun-20 04:04N 38°22' E 024°50'  
2016-Jun-17 02:21N 46°23' E 030°55'911.4
2016-Jun-17 01:33N 46°32' E 030°55'2410.6
2016-Jun-16 23:17N 46°36' E 031°30'810.6
2016-Jun-16 22:33N 46°36' E 031°41'1110.9
2016-Jun-16 21:34N 46°39' E 031°56'1010.0
2016-Jun-16 20:34N 46°49' E 031°55'8 8.4
2016-Jun-16 19:33N 46°56' E 032°01'0 0.0
2016-Jun-16 18:33N 46°56' E 032°01'0 0.0
2016-Jun-16 17:33N 46°56' E 032°01'0 0.0
2016-Jun-16 16:33N 46°56' E 032°01'0 0.0
2016-Jun-16 15:33N 46°56' E 032°01'0 0.0
2016-Jun-16 14:33N 46°56' E 032°01'0 0.0
2016-Jun-16 13:33N 46°56' E 032°01'0 0.0
2016-Jun-16 12:33N 46°56' E 032°01'0 0.0
2016-Jun-16 11:33N 46°56' E 032°01'0 0.0
2016-Jun-16 10:33N 46°56' E 032°01'0 0.0
2016-Jun-16 09:33N 46°56' E 032°01'0 0.0
2016-Jun-16 08:33N 46°56' E 032°01'0 0.0
2016-Jun-16 07:33N 46°56' E 032°01'0 0.0
2016-Jun-16 06:33N 46°56' E 032°01'0 0.0
2016-Jun-16 05:33N 46°56' E 032°01'0 0.0
2016-Jun-16 04:33N 46°56' E 032°01'0 0.0
2016-Jun-16 03:33N 46°56' E 032°01'0 0.0
2016-Jun-16 02:33N 46°56' E 032°01'0 0.0
2016-Jun-16 01:33N 46°56' E 032°01'0 0.0
2016-Jun-16 00:33N 46°56' E 032°01'0 0.0
2016-Jun-15 23:33N 46°56' E 032°01'0 0.0
2016-Jun-15 22:33N 46°56' E 032°01'0 0.0
2016-Jun-15 21:33N 46°56' E 032°01'  

Dump ship's entire track history